sensor_id;sensor_type;location;lat;lon;timestamp;P1;durP1;ratioP1;P2;durP2;ratioP2
33459;SDS011;19795;53.160;6.612;2022-10-16T06:36:11;75.28;;;71.38;;
33459;SDS011;19795;53.160;6.612;2022-10-16T06:38:41;69.70;;;66.30;;
33459;SDS011;19795;53.160;6.612;2022-10-16T06:43:42;59.47;;;56.63;;
33459;SDS011;19795;53.160;6.612;2022-10-16T06:46:12;57.55;;;54.70;;
33459;SDS011;19795;53.160;6.612;2022-10-16T06:48:39;45.47;;;43.17;;
33459;SDS011;19795;53.160;6.612;2022-10-16T06:51:08;35.22;;;33.33;;
33459;SDS011;19795;53.160;6.612;2022-10-16T06:53:39;26.90;;;25.33;;
33459;SDS011;19795;53.160;6.612;2022-10-16T06:56:10;22.38;;;20.98;;
33459;SDS011;19795;53.160;6.612;2022-10-16T06:58:36;21.55;;;19.98;;
33459;SDS011;19795;53.160;6.612;2022-10-16T07:01:02;18.77;;;17.52;;
33459;SDS011;19795;53.160;6.612;2022-10-16T07:03:29;15.85;;;14.43;;
33459;SDS011;19795;53.160;6.612;2022-10-16T07:05:55;10.85;;;10.15;;
33459;SDS011;19795;53.160;6.612;2022-10-16T07:08:21;9.32;;;8.73;;
33459;SDS011;19795;53.160;6.612;2022-10-16T07:10:46;8.65;;;8.05;;
33459;SDS011;19795;53.160;6.612;2022-10-16T07:13:12;8.60;;;7.90;;
33459;SDS011;19795;53.160;6.612;2022-10-16T07:15:39;7.57;;;7.07;;
33459;SDS011;19795;53.160;6.612;2022-10-16T07:18:05;8.60;;;7.85;;
33459;SDS011;19795;53.160;6.612;2022-10-16T07:20:30;10.27;;;9.32;;
33459;SDS011;19795;53.160;6.612;2022-10-16T07:22:56;9.73;;;9.00;;
33459;SDS011;19795;53.160;6.612;2022-10-16T07:25:22;9.77;;;9.07;;
33459;SDS011;19795;53.160;6.612;2022-10-16T07:27:47;9.70;;;8.90;;
33459;SDS011;19795;53.160;6.612;2022-10-16T07:30:13;8.43;;;7.57;;
33459;SDS011;19795;53.160;6.612;2022-10-16T07:32:39;8.75;;;8.00;;
33459;SDS011;19795;53.160;6.612;2022-10-16T07:35:04;21.80;;;20.45;;
33459;SDS011;19795;53.160;6.612;2022-10-16T07:37:30;21.73;;;20.52;;
33459;SDS011;19795;53.160;6.612;2022-10-16T07:39:56;7.35;;;6.15;;
33459;SDS011;19795;53.160;6.612;2022-10-16T07:42:21;10.38;;;9.48;;
33459;SDS011;19795;53.160;6.612;2022-10-16T07:44:47;8.05;;;7.38;;
33459;SDS011;19795;53.160;6.612;2022-10-16T07:47:13;8.90;;;8.20;;
33459;SDS011;19795;53.160;6.612;2022-10-16T07:49:39;7.32;;;6.72;;
33459;SDS011;19795;53.160;6.612;2022-10-16T07:52:04;9.60;;;8.65;;
33459;SDS011;19795;53.160;6.612;2022-10-16T07:54:30;8.70;;;8.00;;
33459;SDS011;19795;53.160;6.612;2022-10-16T07:56:55;7.60;;;7.10;;
33459;SDS011;19795;53.160;6.612;2022-10-16T07:59:21;6.10;;;5.50;;
33459;SDS011;19795;53.160;6.612;2022-10-16T08:01:48;4.95;;;4.57;;
33459;SDS011;19795;53.160;6.612;2022-10-16T08:04:14;4.22;;;3.25;;
33459;SDS011;19795;53.160;6.612;2022-10-16T08:06:40;3.80;;;2.47;;
33459;SDS011;19795;53.160;6.612;2022-10-16T08:09:06;2.35;;;1.67;;
33459;SDS011;19795;53.160;6.612;2022-10-16T08:11:33;1.60;;;1.50;;
33459;SDS011;19795;53.160;6.612;2022-10-16T08:13:58;3.58;;;1.33;;
33459;SDS011;19795;53.160;6.612;2022-10-16T08:16:24;1.90;;;1.38;;
33459;SDS011;19795;53.160;6.612;2022-10-16T08:18:50;5.10;;;1.40;;
33459;SDS011;19795;53.160;6.612;2022-10-16T08:21:17;3.65;;;1.70;;
33459;SDS011;19795;53.160;6.612;2022-10-16T08:23:44;2.97;;;1.40;;
33459;SDS011;19795;53.160;6.612;2022-10-16T08:26:10;5.20;;;1.88;;
33459;SDS011;19795;53.160;6.612;2022-10-16T08:28:37;4.93;;;1.45;;
33459;SDS011;19795;53.160;6.612;2022-10-16T08:31:10;3.38;;;1.40;;
33459;SDS011;19795;53.160;6.612;2022-10-16T08:33:38;2.22;;;1.33;;
33459;SDS011;19795;53.160;6.612;2022-10-16T08:36:05;4.10;;;1.80;;
33459;SDS011;19795;53.160;6.612;2022-10-16T08:38:31;3.72;;;1.30;;
33459;SDS011;19795;53.160;6.612;2022-10-16T08:41:02;4.95;;;1.25;;
33459;SDS011;19795;53.160;6.612;2022-10-16T08:44:13;2.67;;;1.30;;
33459;SDS011;19795;53.160;6.612;2022-10-16T08:49:42;2.78;;;1.33;;
33459;SDS011;19795;53.160;6.612;2022-10-16T08:52:15;4.03;;;1.05;;
33459;SDS011;19795;53.160;6.612;2022-10-16T08:54:41;5.38;;;1.15;;
33459;SDS011;19795;53.160;6.612;2022-10-16T08:57:12;3.92;;;1.20;;
33459;SDS011;19795;53.160;6.612;2022-10-16T08:59:40;5.53;;;1.05;;
33459;SDS011;19795;53.160;6.612;2022-10-16T09:02:20;3.92;;;1.05;;
33459;SDS011;19795;53.160;6.612;2022-10-16T09:05:38;5.03;;;1.27;;
33459;SDS011;19795;53.160;6.612;2022-10-16T09:19:09;3.65;;;1.05;;
33459;SDS011;19795;53.160;6.612;2022-10-16T09:22:10;4.97;;;1.17;;
33459;SDS011;19795;53.160;6.612;2022-10-16T09:24:39;3.97;;;1.13;;
33459;SDS011;19795;53.160;6.612;2022-10-16T09:27:07;6.55;;;1.30;;
33459;SDS011;19795;53.160;6.612;2022-10-16T09:29:36;4.63;;;1.25;;
33459;SDS011;19795;53.160;6.612;2022-10-16T09:32:16;5.10;;;1.25;;
33459;SDS011;19795;53.160;6.612;2022-10-16T09:34:49;9.23;;;1.45;;
33459;SDS011;19795;53.160;6.612;2022-10-16T09:37:18;6.60;;;1.27;;
33459;SDS011;19795;53.160;6.612;2022-10-16T09:39:52;9.65;;;1.67;;
33459;SDS011;19795;53.160;6.612;2022-10-16T09:42:19;9.05;;;1.80;;
33459;SDS011;19795;53.160;6.612;2022-10-16T09:44:49;8.68;;;1.45;;
33459;SDS011;19795;53.160;6.612;2022-10-16T09:47:18;8.35;;;1.27;;
33459;SDS011;19795;53.160;6.612;2022-10-16T09:49:52;9.77;;;1.42;;
33459;SDS011;19795;53.160;6.612;2022-10-16T09:52:31;11.20;;;1.90;;
33459;SDS011;19795;53.160;6.612;2022-10-16T09:54:58;7.82;;;1.30;;
33459;SDS011;19795;53.160;6.612;2022-10-16T09:57:36;10.65;;;1.35;;
33459;SDS011;19795;53.160;6.612;2022-10-16T10:00:04;9.73;;;1.40;;
33459;SDS011;19795;53.160;6.612;2022-10-16T10:02:34;9.05;;;1.60;;
33459;SDS011;19795;53.160;6.612;2022-10-16T10:05:01;9.50;;;1.52;;
33459;SDS011;19795;53.160;6.612;2022-10-16T10:07:33;7.85;;;1.27;;
33459;SDS011;19795;53.160;6.612;2022-10-16T10:10:04;8.73;;;1.38;;
33459;SDS011;19795;53.160;6.612;2022-10-16T10:12:31;8.43;;;1.45;;
33459;SDS011;19795;53.160;6.612;2022-10-16T10:15:12;8.45;;;1.80;;
33459;SDS011;19795;53.160;6.612;2022-10-16T10:17:45;7.32;;;1.60;;
33459;SDS011;19795;53.160;6.612;2022-10-16T10:22:59;11.40;;;1.80;;
33459;SDS011;19795;53.160;6.612;2022-10-16T10:38:39;11.82;;;1.73;;
33459;SDS011;19795;53.160;6.612;2022-10-16T10:46:41;14.15;;;2.05;;
33459;SDS011;19795;53.160;6.612;2022-10-16T10:52:33;13.35;;;1.52;;
33459;SDS011;19795;53.160;6.612;2022-10-16T10:55:10;8.95;;;1.88;;
33459;SDS011;19795;53.160;6.612;2022-10-16T10:57:59;14.82;;;1.77;;
33459;SDS011;19795;53.160;6.612;2022-10-16T11:06:22;11.88;;;1.67;;
33459;SDS011;19795;53.160;6.612;2022-10-16T11:08:53;18.85;;;2.40;;
33459;SDS011;19795;53.160;6.612;2022-10-16T11:11:44;10.60;;;2.10;;
33459;SDS011;19795;53.160;6.612;2022-10-16T11:14:30;10.68;;;1.83;;
33459;SDS011;19795;53.160;6.612;2022-10-16T11:17:10;9.25;;;2.15;;
33459;SDS011;19795;53.160;6.612;2022-10-16T11:20:00;8.77;;;1.40;;
33459;SDS011;19795;53.160;6.612;2022-10-16T11:22:41;13.07;;;1.80;;
33459;SDS011;19795;53.160;6.612;2022-10-16T11:25:26;10.93;;;1.90;;
33459;SDS011;19795;53.160;6.612;2022-10-16T11:30:23;14.55;;;1.73;;
33459;SDS011;19795;53.160;6.612;2022-10-16T11:32:56;13.82;;;1.58;;
33459;SDS011;19795;53.160;6.612;2022-10-16T11:36:17;9.75;;;1.60;;
33459;SDS011;19795;53.160;6.612;2022-10-16T11:40:59;11.38;;;1.60;;
33459;SDS011;19795;53.160;6.612;2022-10-16T11:43:34;11.98;;;1.63;;
33459;SDS011;19795;53.160;6.612;2022-10-16T11:46:15;11.23;;;1.50;;
33459;SDS011;19795;53.160;6.612;2022-10-16T11:48:48;11.50;;;1.40;;
33459;SDS011;19795;53.160;6.612;2022-10-16T11:51:29;11.93;;;1.50;;
33459;SDS011;19795;53.160;6.612;2022-10-16T11:54:18;12.20;;;1.67;;
33459;SDS011;19795;53.160;6.612;2022-10-16T11:56:53;11.05;;;1.63;;
33459;SDS011;19795;53.160;6.612;2022-10-16T11:59:27;11.82;;;1.60;;
33459;SDS011;19795;53.160;6.612;2022-10-16T12:05:15;11.90;;;1.90;;
33459;SDS011;19795;53.160;6.612;2022-10-16T12:07:50;12.20;;;1.70;;
33459;SDS011;19795;53.160;6.612;2022-10-16T12:10:30;15.40;;;2.92;;
33459;SDS011;19795;53.160;6.612;2022-10-16T12:12:59;11.82;;;1.70;;
33459;SDS011;19795;53.160;6.612;2022-10-16T12:17:52;10.25;;;1.92;;
33459;SDS011;19795;53.160;6.612;2022-10-16T12:20:25;12.73;;;2.00;;
33459;SDS011;19795;53.160;6.612;2022-10-16T12:22:57;11.10;;;2.05;;
33459;SDS011;19795;53.160;6.612;2022-10-16T12:25:29;10.25;;;1.63;;
33459;SDS011;19795;53.160;6.612;2022-10-16T12:30:41;10.05;;;1.50;;
33459;SDS011;19795;53.160;6.612;2022-10-16T12:33:22;11.80;;;1.63;;
33459;SDS011;19795;53.160;6.612;2022-10-16T12:35:53;14.18;;;1.77;;
33459;SDS011;19795;53.160;6.612;2022-10-16T12:40:55;11.02;;;2.03;;
33459;SDS011;19795;53.160;6.612;2022-10-16T12:48:35;12.07;;;1.83;;
33459;SDS011;19795;53.160;6.612;2022-10-16T12:51:12;8.23;;;1.45;;
33459;SDS011;19795;53.160;6.612;2022-10-16T12:54:04;10.55;;;1.58;;
33459;SDS011;19795;53.160;6.612;2022-10-16T13:01:46;10.63;;;1.58;;
33459;SDS011;19795;53.160;6.612;2022-10-16T13:13:47;11.02;;;1.67;;
33459;SDS011;19795;53.160;6.612;2022-10-16T13:28:10;14.25;;;1.75;;
33459;SDS011;19795;53.160;6.612;2022-10-16T13:30:40;12.15;;;1.58;;
33459;SDS011;19795;53.160;6.612;2022-10-16T13:35:54;9.18;;;1.40;;
33459;SDS011;19795;53.160;6.612;2022-10-16T13:38:21;15.20;;;2.25;;
33459;SDS011;19795;53.160;6.612;2022-10-16T13:40:53;9.98;;;1.70;;
33459;SDS011;19795;53.160;6.612;2022-10-16T13:43:22;9.20;;;1.58;;
33459;SDS011;19795;53.160;6.612;2022-10-16T13:45:58;9.55;;;1.80;;
33459;SDS011;19795;53.160;6.612;2022-10-16T13:48:24;12.75;;;2.10;;
33459;SDS011;19795;53.160;6.612;2022-10-16T13:53:29;9.35;;;1.80;;
33459;SDS011;19795;53.160;6.612;2022-10-16T13:55:56;13.40;;;2.25;;
33459;SDS011;19795;53.160;6.612;2022-10-16T13:58:22;9.88;;;2.03;;
33459;SDS011;19795;53.160;6.612;2022-10-16T14:00:58;20.45;;;3.00;;
33459;SDS011;19795;53.160;6.612;2022-10-16T14:03:26;33.75;;;16.17;;
33459;SDS011;19795;53.160;6.612;2022-10-16T14:05:58;16.40;;;3.70;;
33459;SDS011;19795;53.160;6.612;2022-10-16T14:08:26;18.38;;;3.85;;
33459;SDS011;19795;53.160;6.612;2022-10-16T14:10:55;12.32;;;2.33;;
33459;SDS011;19795;53.160;6.612;2022-10-16T14:13:26;14.48;;;2.60;;
33459;SDS011;19795;53.160;6.612;2022-10-16T14:16:25;13.82;;;2.30;;
33459;SDS011;19795;53.160;6.612;2022-10-16T14:21:24;12.05;;;1.90;;
33459;SDS011;19795;53.160;6.612;2022-10-16T14:23:51;11.32;;;1.85;;
33459;SDS011;19795;53.160;6.612;2022-10-16T14:26:18;16.90;;;2.03;;
33459;SDS011;19795;53.160;6.612;2022-10-16T14:28:46;13.43;;;1.88;;
33459;SDS011;19795;53.160;6.612;2022-10-16T14:34:04;14.45;;;1.75;;
33459;SDS011;19795;53.160;6.612;2022-10-16T14:36:47;11.38;;;1.45;;
33459;SDS011;19795;53.160;6.612;2022-10-16T14:39:16;9.30;;;1.42;;
33459;SDS011;19795;53.160;6.612;2022-10-16T14:41:45;12.20;;;1.45;;
33459;SDS011;19795;53.160;6.612;2022-10-16T14:44:27;9.95;;;1.48;;
33459;SDS011;19795;53.160;6.612;2022-10-16T14:46:54;8.35;;;1.20;;
33459;SDS011;19795;53.160;6.612;2022-10-16T14:49:20;11.80;;;1.80;;
33459;SDS011;19795;53.160;6.612;2022-10-16T14:51:48;9.77;;;1.38;;
33459;SDS011;19795;53.160;6.612;2022-10-16T14:54:17;8.15;;;1.45;;
33459;SDS011;19795;53.160;6.612;2022-10-16T14:56:53;14.18;;;2.00;;
33459;SDS011;19795;53.160;6.612;2022-10-16T15:02:00;11.18;;;1.80;;
33459;SDS011;19795;53.160;6.612;2022-10-16T15:04:38;13.52;;;2.08;;
33459;SDS011;19795;53.160;6.612;2022-10-16T15:07:04;10.30;;;1.65;;
33459;SDS011;19795;53.160;6.612;2022-10-16T15:09:29;7.25;;;1.33;;
33459;SDS011;19795;53.160;6.612;2022-10-16T15:11:55;13.55;;;1.80;;
33459;SDS011;19795;53.160;6.612;2022-10-16T15:14:20;10.80;;;1.48;;
33459;SDS011;19795;53.160;6.612;2022-10-16T15:16:46;10.00;;;1.90;;
33459;SDS011;19795;53.160;6.612;2022-10-16T15:19:11;11.35;;;1.70;;
33459;SDS011;19795;53.160;6.612;2022-10-16T15:21:37;10.20;;;1.65;;
33459;SDS011;19795;53.160;6.612;2022-10-16T15:24:05;10.18;;;1.48;;
33459;SDS011;19795;53.160;6.612;2022-10-16T15:26:36;11.52;;;1.60;;
33459;SDS011;19795;53.160;6.612;2022-10-16T15:29:01;9.88;;;1.83;;
33459;SDS011;19795;53.160;6.612;2022-10-16T15:31:27;13.88;;;2.08;;
33459;SDS011;19795;53.160;6.612;2022-10-16T15:33:53;14.02;;;1.67;;
33459;SDS011;19795;53.160;6.612;2022-10-16T15:36:27;16.88;;;1.98;;
33459;SDS011;19795;53.160;6.612;2022-10-16T15:38:53;12.30;;;1.65;;
33459;SDS011;19795;53.160;6.612;2022-10-16T15:41:19;11.88;;;1.83;;
33459;SDS011;19795;53.160;6.612;2022-10-16T15:43:47;10.02;;;1.42;;
33459;SDS011;19795;53.160;6.612;2022-10-16T15:46:14;10.82;;;1.45;;
33459;SDS011;19795;53.160;6.612;2022-10-16T15:48:42;12.93;;;1.50;;
33459;SDS011;19795;53.160;6.612;2022-10-16T15:51:08;12.25;;;1.60;;
33459;SDS011;19795;53.160;6.612;2022-10-16T15:53:34;18.20;;;1.83;;
33459;SDS011;19795;53.160;6.612;2022-10-16T15:56:02;13.38;;;1.60;;
33459;SDS011;19795;53.160;6.612;2022-10-16T15:58:30;16.80;;;2.20;;
33459;SDS011;19795;53.160;6.612;2022-10-16T16:00:57;14.77;;;1.70;;
33459;SDS011;19795;53.160;6.612;2022-10-16T16:03:25;15.32;;;1.85;;
33459;SDS011;19795;53.160;6.612;2022-10-16T16:05:51;14.55;;;1.75;;
33459;SDS011;19795;53.160;6.612;2022-10-16T16:08:17;11.70;;;1.77;;
33459;SDS011;19795;53.160;6.612;2022-10-16T16:10:43;9.40;;;1.65;;
33459;SDS011;19795;53.160;6.612;2022-10-16T16:13:08;18.90;;;1.90;;
33459;SDS011;19795;53.160;6.612;2022-10-16T16:15:34;11.45;;;1.50;;
33459;SDS011;19795;53.160;6.612;2022-10-16T16:18:03;14.25;;;1.85;;
33459;SDS011;19795;53.160;6.612;2022-10-16T16:20:30;12.32;;;1.85;;
33459;SDS011;19795;53.160;6.612;2022-10-16T16:22:56;11.52;;;1.50;;
33459;SDS011;19795;53.160;6.612;2022-10-16T16:25:22;12.75;;;2.08;;
33459;SDS011;19795;53.160;6.612;2022-10-16T16:27:47;7.80;;;1.60;;
33459;SDS011;19795;53.160;6.612;2022-10-16T16:30:13;12.07;;;1.67;;
33459;SDS011;19795;53.160;6.612;2022-10-16T16:32:39;11.40;;;1.83;;
33459;SDS011;19795;53.160;6.612;2022-10-16T16:35:04;11.98;;;1.70;;
33459;SDS011;19795;53.160;6.612;2022-10-16T16:37:30;11.80;;;1.63;;
33459;SDS011;19795;53.160;6.612;2022-10-16T16:39:56;9.23;;;1.60;;
33459;SDS011;19795;53.160;6.612;2022-10-16T16:42:24;13.70;;;1.88;;
33459;SDS011;19795;53.160;6.612;2022-10-16T16:44:50;15.85;;;1.95;;
33459;SDS011;19795;53.160;6.612;2022-10-16T16:47:16;9.65;;;1.83;;
33459;SDS011;19795;53.160;6.612;2022-10-16T16:49:42;12.55;;;1.73;;
33459;SDS011;19795;53.160;6.612;2022-10-16T16:52:07;10.88;;;1.80;;
33459;SDS011;19795;53.160;6.612;2022-10-16T16:54:33;11.27;;;2.05;;
33459;SDS011;19795;53.160;6.612;2022-10-16T16:56:58;9.98;;;1.58;;
33459;SDS011;19795;53.160;6.612;2022-10-16T16:59:24;8.35;;;1.80;;
33459;SDS011;19795;53.160;6.612;2022-10-16T17:01:50;11.32;;;1.65;;
33459;SDS011;19795;53.160;6.612;2022-10-16T17:04:16;15.02;;;1.83;;
33459;SDS011;19795;53.160;6.612;2022-10-16T17:06:42;9.00;;;2.00;;
33459;SDS011;19795;53.160;6.612;2022-10-16T17:09:08;10.90;;;1.80;;
33459;SDS011;19795;53.160;6.612;2022-10-16T17:11:34;9.45;;;1.70;;
33459;SDS011;19795;53.160;6.612;2022-10-16T17:14:00;11.63;;;1.73;;
33459;SDS011;19795;53.160;6.612;2022-10-16T17:16:28;11.38;;;1.80;;
33459;SDS011;19795;53.160;6.612;2022-10-16T17:19:03;16.95;;;2.35;;
33459;SDS011;19795;53.160;6.612;2022-10-16T17:21:31;13.95;;;1.83;;
33459;SDS011;19795;53.160;6.612;2022-10-16T17:23:57;12.13;;;2.10;;
33459;SDS011;19795;53.160;6.612;2022-10-16T17:26:23;12.27;;;2.10;;
33459;SDS011;19795;53.160;6.612;2022-10-16T17:28:52;17.48;;;2.33;;
33459;SDS011;19795;53.160;6.612;2022-10-16T17:31:20;11.68;;;1.98;;
33459;SDS011;19795;53.160;6.612;2022-10-16T17:33:48;12.45;;;2.33;;
33459;SDS011;19795;53.160;6.612;2022-10-16T17:36:13;8.60;;;2.20;;
33459;SDS011;19795;53.160;6.612;2022-10-16T17:38:40;11.20;;;2.25;;
33459;SDS011;19795;53.160;6.612;2022-10-16T17:41:13;8.32;;;2.35;;
33459;SDS011;19795;53.160;6.612;2022-10-16T17:43:41;12.90;;;2.83;;
33459;SDS011;19795;53.160;6.612;2022-10-16T17:46:07;11.60;;;2.97;;
33459;SDS011;19795;53.160;6.612;2022-10-16T17:48:41;12.13;;;2.85;;
33459;SDS011;19795;53.160;6.612;2022-10-16T17:51:10;9.57;;;2.65;;
33459;SDS011;19795;53.160;6.612;2022-10-16T17:53:37;11.65;;;3.03;;
33459;SDS011;19795;53.160;6.612;2022-10-16T17:56:04;10.98;;;2.88;;
33459;SDS011;19795;53.160;6.612;2022-10-16T17:58:31;11.32;;;2.85;;
33459;SDS011;19795;53.160;6.612;2022-10-16T18:00:57;11.00;;;3.10;;
33459;SDS011;19795;53.160;6.612;2022-10-16T18:03:23;16.20;;;3.47;;
33459;SDS011;19795;53.160;6.612;2022-10-16T18:05:51;9.55;;;3.10;;
33459;SDS011;19795;53.160;6.612;2022-10-16T18:08:17;10.77;;;3.72;;
33459;SDS011;19795;53.160;6.612;2022-10-16T18:10:46;11.40;;;3.90;;
33459;SDS011;19795;53.160;6.612;2022-10-16T18:13:13;11.68;;;4.90;;
33459;SDS011;19795;53.160;6.612;2022-10-16T18:15:39;11.90;;;4.05;;
33459;SDS011;19795;53.160;6.612;2022-10-16T18:18:05;16.30;;;4.28;;
33459;SDS011;19795;53.160;6.612;2022-10-16T18:20:31;13.60;;;3.67;;
33459;SDS011;19795;53.160;6.612;2022-10-16T18:22:57;12.00;;;3.92;;
33459;SDS011;19795;53.160;6.612;2022-10-16T18:25:22;10.80;;;4.07;;
33459;SDS011;19795;53.160;6.612;2022-10-16T18:27:48;10.60;;;3.90;;
33459;SDS011;19795;53.160;6.612;2022-10-16T18:30:13;15.75;;;4.90;;
33459;SDS011;19795;53.160;6.612;2022-10-16T18:32:39;18.60;;;5.35;;
33459;SDS011;19795;53.160;6.612;2022-10-16T18:35:05;13.75;;;4.70;;
33459;SDS011;19795;53.160;6.612;2022-10-16T18:37:31;18.08;;;6.60;;
33459;SDS011;19795;53.160;6.612;2022-10-16T18:39:59;9.55;;;5.10;;
33459;SDS011;19795;53.160;6.612;2022-10-16T18:42:25;10.90;;;5.03;;
33459;SDS011;19795;53.160;6.612;2022-10-16T18:44:50;12.35;;;5.35;;
33459;SDS011;19795;53.160;6.612;2022-10-16T18:47:16;12.57;;;6.32;;
33459;SDS011;19795;53.160;6.612;2022-10-16T18:49:41;14.02;;;5.97;;
33459;SDS011;19795;53.160;6.612;2022-10-16T18:52:08;14.45;;;5.88;;
33459;SDS011;19795;53.160;6.612;2022-10-16T18:54:34;15.77;;;5.78;;
33459;SDS011;19795;53.160;6.612;2022-10-16T18:57:01;17.20;;;5.72;;
33459;SDS011;19795;53.160;6.612;2022-10-16T18:59:27;12.23;;;5.40;;
33459;SDS011;19795;53.160;6.612;2022-10-16T19:01:53;9.35;;;5.65;;
33459;SDS011;19795;53.160;6.612;2022-10-16T19:04:18;12.52;;;5.72;;
33459;SDS011;19795;53.160;6.612;2022-10-16T19:06:47;11.00;;;5.30;;
33459;SDS011;19795;53.160;6.612;2022-10-16T19:09:15;11.35;;;5.32;;
33459;SDS011;19795;53.160;6.612;2022-10-16T19:11:42;10.95;;;5.40;;
33459;SDS011;19795;53.160;6.612;2022-10-16T19:14:09;11.68;;;5.80;;
33459;SDS011;19795;53.160;6.612;2022-10-16T19:16:35;11.82;;;5.90;;
33459;SDS011;19795;53.160;6.612;2022-10-16T19:19:04;12.68;;;5.90;;
33459;SDS011;19795;53.160;6.612;2022-10-16T19:21:33;15.27;;;5.63;;
33459;SDS011;19795;53.160;6.612;2022-10-16T19:24:02;10.50;;;5.25;;
33459;SDS011;19795;53.160;6.612;2022-10-16T19:26:28;12.93;;;6.05;;
33459;SDS011;19795;53.160;6.612;2022-10-16T19:28:55;11.15;;;5.30;;
33459;SDS011;19795;53.160;6.612;2022-10-16T19:31:22;9.85;;;5.60;;
33459;SDS011;19795;53.160;6.612;2022-10-16T19:33:50;10.82;;;5.75;;
33459;SDS011;19795;53.160;6.612;2022-10-16T19:36:18;14.95;;;5.80;;
33459;SDS011;19795;53.160;6.612;2022-10-16T19:38:59;13.13;;;6.25;;
33459;SDS011;19795;53.160;6.612;2022-10-16T19:41:26;10.57;;;5.93;;
33459;SDS011;19795;53.160;6.612;2022-10-16T19:43:53;10.27;;;6.63;;
33459;SDS011;19795;53.160;6.612;2022-10-16T19:46:24;12.38;;;6.32;;
33459;SDS011;19795;53.160;6.612;2022-10-16T19:48:56;14.10;;;6.38;;
33459;SDS011;19795;53.160;6.612;2022-10-16T19:51:24;9.23;;;5.38;;
33459;SDS011;19795;53.160;6.612;2022-10-16T19:54:10;16.15;;;6.85;;
33459;SDS011;19795;53.160;6.612;2022-10-16T19:56:37;14.27;;;5.82;;
33459;SDS011;19795;53.160;6.612;2022-10-16T19:59:03;11.35;;;5.75;;
33459;SDS011;19795;53.160;6.612;2022-10-16T20:01:30;12.95;;;6.00;;
33459;SDS011;19795;53.160;6.612;2022-10-16T20:03:56;15.35;;;5.88;;
33459;SDS011;19795;53.160;6.612;2022-10-16T20:06:22;13.77;;;6.03;;
33459;SDS011;19795;53.160;6.612;2022-10-16T20:08:49;13.48;;;5.60;;
33459;SDS011;19795;53.160;6.612;2022-10-16T20:11:20;12.07;;;7.15;;
33459;SDS011;19795;53.160;6.612;2022-10-16T20:13:48;14.20;;;6.97;;
33459;SDS011;19795;53.160;6.612;2022-10-16T20:16:14;14.38;;;6.68;;
33459;SDS011;19795;53.160;6.612;2022-10-16T20:18:43;11.85;;;6.78;;
33459;SDS011;19795;53.160;6.612;2022-10-16T20:21:20;9.23;;;6.30;;
33459;SDS011;19795;53.160;6.612;2022-10-16T20:23:48;13.05;;;6.47;;
33459;SDS011;19795;53.160;6.612;2022-10-16T20:26:15;12.80;;;6.85;;
33459;SDS011;19795;53.160;6.612;2022-10-16T20:28:42;10.32;;;7.10;;
33459;SDS011;19795;53.160;6.612;2022-10-16T20:31:09;17.73;;;8.10;;
33459;SDS011;19795;53.160;6.612;2022-10-16T20:33:39;13.80;;;7.15;;
33459;SDS011;19795;53.160;6.612;2022-10-16T20:36:09;13.77;;;6.03;;
33459;SDS011;19795;53.160;6.612;2022-10-16T20:38:38;11.27;;;6.45;;
33459;SDS011;19795;53.160;6.612;2022-10-16T20:41:05;9.88;;;6.47;;
33459;SDS011;19795;53.160;6.612;2022-10-16T20:43:33;10.35;;;6.43;;
33459;SDS011;19795;53.160;6.612;2022-10-16T20:46:00;12.70;;;6.82;;
33459;SDS011;19795;53.160;6.612;2022-10-16T20:48:27;14.68;;;7.13;;
33459;SDS011;19795;53.160;6.612;2022-10-16T20:50:53;13.32;;;7.43;;
33459;SDS011;19795;53.160;6.612;2022-10-16T20:53:19;14.63;;;8.13;;
33459;SDS011;19795;53.160;6.612;2022-10-16T20:55:44;15.50;;;7.68;;
33459;SDS011;19795;53.160;6.612;2022-10-16T20:58:10;10.77;;;7.68;;
33459;SDS011;19795;53.160;6.612;2022-10-16T21:00:36;13.10;;;7.97;;
33459;SDS011;19795;53.160;6.612;2022-10-16T21:03:03;16.27;;;8.55;;
33459;SDS011;19795;53.160;6.612;2022-10-16T21:05:28;13.23;;;7.88;;
33459;SDS011;19795;53.160;6.612;2022-10-16T21:07:56;14.15;;;7.75;;
33459;SDS011;19795;53.160;6.612;2022-10-16T21:10:22;12.60;;;7.90;;
33459;SDS011;19795;53.160;6.612;2022-10-16T21:12:51;11.23;;;6.95;;
33459;SDS011;19795;53.160;6.612;2022-10-16T21:15:19;15.70;;;7.43;;
33459;SDS011;19795;53.160;6.612;2022-10-16T21:17:45;14.43;;;8.02;;
33459;SDS011;19795;53.160;6.612;2022-10-16T21:20:11;13.20;;;6.80;;
33459;SDS011;19795;53.160;6.612;2022-10-16T21:22:37;14.15;;;6.35;;
33459;SDS011;19795;53.160;6.612;2022-10-16T21:25:03;11.05;;;6.22;;
33459;SDS011;19795;53.160;6.612;2022-10-16T21:27:29;11.45;;;5.20;;
33459;SDS011;19795;53.160;6.612;2022-10-16T21:30:01;9.45;;;5.13;;
33459;SDS011;19795;53.160;6.612;2022-10-16T21:32:26;9.55;;;5.30;;
33459;SDS011;19795;53.160;6.612;2022-10-16T21:34:52;8.82;;;5.00;;
33459;SDS011;19795;53.160;6.612;2022-10-16T21:37:17;10.70;;;4.88;;
33459;SDS011;19795;53.160;6.612;2022-10-16T21:39:43;9.88;;;4.53;;
33459;SDS011;19795;53.160;6.612;2022-10-16T21:42:09;11.43;;;4.80;;
33459;SDS011;19795;53.160;6.612;2022-10-16T21:44:34;12.50;;;4.65;;
33459;SDS011;19795;53.160;6.612;2022-10-16T21:47:00;10.18;;;4.40;;
33459;SDS011;19795;53.160;6.612;2022-10-16T21:49:25;8.85;;;4.20;;
33459;SDS011;19795;53.160;6.612;2022-10-16T21:51:51;9.77;;;4.05;;
33459;SDS011;19795;53.160;6.612;2022-10-16T21:54:20;12.98;;;4.75;;
33459;SDS011;19795;53.160;6.612;2022-10-16T21:56:47;10.38;;;4.50;;
33459;SDS011;19795;53.160;6.612;2022-10-16T21:59:13;8.40;;;4.43;;
33459;SDS011;19795;53.160;6.612;2022-10-16T22:01:39;8.93;;;4.15;;
